createdAt,value
2017-05-04T00:01:03.717Z,10.75
2017-05-04T00:03:32.641Z,12.46
2017-05-04T00:06:01.505Z,9.62
2017-05-04T00:08:30.409Z,12.15
2017-05-04T00:10:59.292Z,11.73
2017-05-04T00:13:28.180Z,10.62
2017-05-04T00:15:57.118Z,11.55
2017-05-04T00:18:26.741Z,10.95
2017-05-04T00:20:55.629Z,10.90
2017-05-04T00:23:24.552Z,11.77
2017-05-04T00:25:53.444Z,11.43
2017-05-04T00:28:22.329Z,11.52
2017-05-04T00:30:51.342Z,10.95
2017-05-04T00:33:20.233Z,11.42
2017-05-04T00:35:49.122Z,11.13
2017-05-04T00:38:18.033Z,10.80
2017-05-04T00:40:46.917Z,11.53
2017-05-04T00:43:15.806Z,11.27
2017-05-04T00:45:45.078Z,10.32
2017-05-04T00:48:13.966Z,11.18
2017-05-04T00:50:42.850Z,11.42
2017-05-04T00:53:12.060Z,12.80
2017-05-04T00:55:40.947Z,11.72
2017-05-04T00:58:09.828Z,11.10
2017-05-04T01:00:38.755Z,11.53
2017-05-04T01:03:07.636Z,11.20
2017-05-04T01:05:36.521Z,12.83
2017-05-04T01:08:05.432Z,10.98
2017-05-04T01:10:34.320Z,11.83
2017-05-04T01:13:03.199Z,10.73
2017-05-04T01:15:32.200Z,11.15
2017-05-04T01:18:01.081Z,10.60
2017-05-04T01:20:29.966Z,12.98
2017-05-04T01:22:58.979Z,12.07
2017-05-04T01:25:27.860Z,10.72
2017-05-04T01:27:56.744Z,11.65
2017-05-04T01:30:25.935Z,10.43
2017-05-04T01:32:54.813Z,9.87
2017-05-04T01:35:23.692Z,11.82
2017-05-04T01:37:52.601Z,11.35
2017-05-04T01:40:21.490Z,11.42
2017-05-04T01:42:50.376Z,11.18
2017-05-04T01:45:19.285Z,10.13
2017-05-04T01:47:48.174Z,10.73
2017-05-04T01:50:17.182Z,11.77
2017-05-04T01:52:46.069Z,11.58
2017-05-04T01:55:14.955Z,10.87
2017-05-04T01:57:43.865Z,11.60
2017-05-04T02:00:12.748Z,10.15
2017-05-04T02:02:41.633Z,10.77
2017-05-04T02:05:10.811Z,10.83
2017-05-04T02:07:39.692Z,10.70
2017-05-04T02:10:08.577Z,10.95
2017-05-04T02:12:37.713Z,10.55
2017-05-04T02:15:06.592Z,11.40
2017-05-04T02:17:35.468Z,10.85
2017-05-04T02:20:04.377Z,12.40
2017-05-04T02:22:33.257Z,12.53
2017-05-04T02:25:02.182Z,12.27
2017-05-04T02:27:31.060Z,11.40
2017-05-04T02:29:59.947Z,10.65
2017-05-04T02:32:28.961Z,11.22
2017-05-04T02:34:57.841Z,10.90
2017-05-04T02:37:26.729Z,12.88
2017-05-04T02:39:55.734Z,12.15
2017-05-04T02:42:24.608Z,12.05
2017-05-04T02:44:53.490Z,12.35
2017-05-04T02:47:22.396Z,9.75
2017-05-04T02:49:51.274Z,11.57
2017-05-04T02:52:20.160Z,11.37
2017-05-04T02:54:49.446Z,11.18
2017-05-04T02:57:18.325Z,11.42
2017-05-04T02:59:47.209Z,10.55
2017-05-04T03:02:16.213Z,11.40
2017-05-04T03:04:45.093Z,10.52
2017-05-04T03:07:13.976Z,10.32
2017-05-04T03:09:43.195Z,10.43
2017-05-04T03:12:12.071Z,10.92
2017-05-04T03:14:40.953Z,11.67
2017-05-04T03:17:09.965Z,11.20
2017-05-04T03:19:38.849Z,10.73
2017-05-04T03:22:07.729Z,11.43
2017-05-04T03:24:36.727Z,9.02
2017-05-04T03:27:05.605Z,11.33
2017-05-04T03:29:35.229Z,10.87
2017-05-04T03:32:04.441Z,11.70
2017-05-04T03:34:33.320Z,10.60
2017-05-04T03:37:02.204Z,11.13
2017-05-04T03:39:31.117Z,12.37
2017-05-04T03:41:59.989Z,11.90
2017-05-04T03:44:28.868Z,11.98
2017-05-04T03:46:57.868Z,9.75
2017-05-04T03:49:26.791Z,10.70
2017-05-04T03:51:55.674Z,10.78
2017-05-04T03:54:24.575Z,10.50
2017-05-04T03:56:53.447Z,12.77
2017-05-04T03:59:22.320Z,11.70
2017-05-04T04:01:51.226Z,11.65
2017-05-04T04:04:20.121Z,11.82
2017-05-04T04:06:48.988Z,12.73
2017-05-04T04:09:17.901Z,13.05
2017-05-04T04:11:46.774Z,12.13
2017-05-04T04:14:15.662Z,11.93
2017-05-04T04:16:44.664Z,12.62
2017-05-04T04:19:13.540Z,13.15
2017-05-04T04:21:42.424Z,12.18
2017-05-04T04:24:12.173Z,11.85
2017-05-04T04:26:42.128Z,11.30
2017-05-04T04:29:11.082Z,12.70
2017-05-04T04:31:39.984Z,10.65
2017-05-04T04:34:08.861Z,12.45
2017-05-04T04:36:37.860Z,11.08
2017-05-04T04:39:06.745Z,12.32
2017-05-04T04:41:35.616Z,12.08
2017-05-04T04:44:04.828Z,13.22
2017-05-04T04:46:33.713Z,12.55
2017-05-04T04:49:02.597Z,11.95
2017-05-04T04:51:31.809Z,12.37
2017-05-04T04:54:00.695Z,11.28
2017-05-04T04:56:29.577Z,12.05
2017-05-04T04:58:58.588Z,12.98
2017-05-04T05:01:27.468Z,12.77
2017-05-04T05:03:56.359Z,13.17
2017-05-04T05:06:25.485Z,13.00
2017-05-04T05:08:54.380Z,12.48
2017-05-04T05:11:23.256Z,14.40
2017-05-04T05:13:52.176Z,14.15
2017-05-04T05:16:21.061Z,12.55
2017-05-04T05:18:49.948Z,12.18
2017-05-04T05:21:18.957Z,10.80
2017-05-04T05:23:47.845Z,13.70
2017-05-04T05:26:16.729Z,11.85
2017-05-04T05:28:45.741Z,13.20
2017-05-04T05:31:15.371Z,12.72
2017-05-04T05:33:44.250Z,12.73
2017-05-04T05:36:13.164Z,12.65
2017-05-04T05:38:42.049Z,11.17
2017-05-04T05:41:11.161Z,11.47
2017-05-04T05:43:40.048Z,12.07
2017-05-04T05:46:08.943Z,11.20
2017-05-04T05:48:37.993Z,11.33
2017-05-04T05:51:07.620Z,12.66
2017-05-04T05:53:36.505Z,11.50
2017-05-04T05:56:05.831Z,11.64
2017-05-04T05:58:34.716Z,12.16
2017-05-04T06:01:03.610Z,11.70
2017-05-04T06:03:32.625Z,12.08
2017-05-04T06:06:01.509Z,10.30
2017-05-04T06:08:30.406Z,12.16
2017-05-04T06:10:59.421Z,14.02
2017-05-04T06:13:28.301Z,11.24
2017-05-04T06:15:57.188Z,12.22
2017-05-04T06:18:26.209Z,12.62
2017-05-04T06:20:55.086Z,12.90
2017-05-04T06:23:24.012Z,14.34
2017-05-04T06:25:53.109Z,12.48
2017-05-04T06:28:22.725Z,12.44
2017-05-04T06:30:51.644Z,12.40
2017-05-04T06:33:20.651Z,11.84
2017-05-04T06:35:49.544Z,14.86
2017-05-04T06:38:18.423Z,14.74
2017-05-04T06:40:47.443Z,13.96
2017-05-04T06:43:16.322Z,14.34
2017-05-04T06:45:45.216Z,13.22
2017-05-04T06:48:14.154Z,13.70
2017-05-04T06:50:43.033Z,14.08
2017-05-04T06:53:12.660Z,14.94
2017-05-04T06:55:41.573Z,14.12
2017-05-04T06:58:10.491Z,17.34
2017-05-04T07:00:39.506Z,15.02
2017-05-04T07:03:09.125Z,17.68
2017-05-04T07:05:38.749Z,16.18
2017-05-04T07:08:07.661Z,15.42
2017-05-04T07:10:36.548Z,14.70
2017-05-04T07:13:05.436Z,16.84
2017-05-04T07:15:34.636Z,18.16
2017-05-04T07:18:03.516Z,17.08
2017-05-04T07:20:32.415Z,16.10
2017-05-04T07:23:01.424Z,17.98
2017-05-04T07:25:30.309Z,16.66
2017-05-04T07:27:59.201Z,16.88
2017-05-04T07:30:28.122Z,15.26
2017-05-04T07:32:57.008Z,13.76
2017-05-04T07:35:25.893Z,15.68
2017-05-04T07:37:54.884Z,17.22
2017-05-04T07:40:23.768Z,16.12
2017-05-04T07:42:52.653Z,17.24
2017-05-04T07:45:21.560Z,15.48
2017-05-04T07:47:50.444Z,16.12
2017-05-04T07:50:19.328Z,17.32
2017-05-04T07:52:48.240Z,15.36
2017-05-04T07:55:17.124Z,16.02
2017-05-04T07:57:46.006Z,15.42
2017-05-04T08:00:15.022Z,15.84
2017-05-04T08:02:43.912Z,16.10
2017-05-04T08:05:12.791Z,14.58
2017-05-04T08:07:41.906Z,16.94
2017-05-04T08:10:10.826Z,16.20
2017-05-04T08:12:39.712Z,16.92
2017-05-04T08:15:09.673Z,15.86
2017-05-04T08:17:38.556Z,14.96
2017-05-04T08:20:07.444Z,16.32
2017-05-04T08:22:36.633Z,16.64
2017-05-04T08:25:05.509Z,16.00
2017-05-04T08:27:34.393Z,15.22
2017-05-04T08:30:03.408Z,13.38
2017-05-04T08:32:32.293Z,13.72
2017-05-04T08:35:01.177Z,14.22
2017-05-04T08:37:30.092Z,12.82
2017-05-04T08:39:59.456Z,13.44
2017-05-04T08:42:28.468Z,13.84
2017-05-04T08:44:57.353Z,13.32
2017-05-04T08:47:26.236Z,14.28
2017-05-04T08:49:55.257Z,14.22
2017-05-04T08:52:24.141Z,12.58
2017-05-04T08:54:53.029Z,12.54
2017-05-04T08:57:22.042Z,12.90
2017-05-04T08:59:50.925Z,11.02
2017-05-04T09:02:19.808Z,11.90
2017-05-04T09:04:49.001Z,12.04
2017-05-04T09:07:17.881Z,11.44
2017-05-04T09:09:46.764Z,11.98
2017-05-04T09:12:16.084Z,11.32
2017-05-04T09:14:44.961Z,10.28
2017-05-04T09:17:13.849Z,10.20
2017-05-04T09:19:42.758Z,10.70
2017-05-04T09:22:11.643Z,10.18
2017-05-04T09:24:40.520Z,10.78
2017-05-04T09:27:09.423Z,10.56
2017-05-04T09:29:38.316Z,10.46
2017-05-04T09:32:07.437Z,10.28
2017-05-04T09:34:36.325Z,10.74
2017-05-04T09:37:05.202Z,11.36
2017-05-04T09:39:34.124Z,10.30
2017-05-04T09:42:03.006Z,10.62
2017-05-04T09:44:31.889Z,10.32
2017-05-04T09:47:00.894Z,9.88
2017-05-04T09:49:29.767Z,9.72
2017-05-04T09:51:58.640Z,9.12
2017-05-04T09:54:27.842Z,7.22
2017-05-04T09:56:56.704Z,5.22
2017-05-04T09:59:25.578Z,6.64
2017-05-04T10:01:55.620Z,6.40
2017-05-04T10:04:24.497Z,5.46
2017-05-04T10:06:54.117Z,5.02
2017-05-04T10:09:23.027Z,5.72
2017-05-04T10:11:51.893Z,6.24
2017-05-04T10:14:20.765Z,6.82
2017-05-04T10:16:50.489Z,5.72
2017-05-04T10:19:20.100Z,6.76
2017-05-04T10:21:48.981Z,6.24
2017-05-04T10:24:18.722Z,5.24
2017-05-04T10:26:47.588Z,4.48
2017-05-04T10:29:16.466Z,4.36
2017-05-04T10:31:46.210Z,4.00
2017-05-04T10:34:15.098Z,4.38
2017-05-04T10:36:43.961Z,4.28
2017-05-04T10:39:13.597Z,3.56
2017-05-04T10:41:42.473Z,3.78
2017-05-04T10:44:11.341Z,3.78
2017-05-04T10:46:40.981Z,4.00
2017-05-04T10:49:09.864Z,3.80
2017-05-04T10:51:38.733Z,4.80
2017-05-04T10:54:08.685Z,3.36
2017-05-04T10:56:37.557Z,2.10
2017-05-04T10:59:06.429Z,3.06
2017-05-04T11:01:36.179Z,4.10
2017-05-04T11:04:05.313Z,2.98
2017-05-04T11:06:34.195Z,3.68
2017-05-04T11:09:03.197Z,3.62
2017-05-04T11:11:32.070Z,4.60
2017-05-04T11:14:00.941Z,4.36
2017-05-04T11:16:30.339Z,4.54
2017-05-04T11:18:59.208Z,3.14
2017-05-04T11:21:28.085Z,3.34
2017-05-04T11:23:57.838Z,5.42
2017-05-04T11:26:26.720Z,5.16
2017-05-04T11:28:55.584Z,5.00
2017-05-04T11:31:24.709Z,4.06
2017-05-04T11:33:53.601Z,4.02
2017-05-04T11:36:22.473Z,5.64
2017-05-04T11:38:51.375Z,5.66
2017-05-04T11:41:20.245Z,6.02
2017-05-04T11:43:49.893Z,6.36
2017-05-04T11:46:18.766Z,6.42
2017-05-04T11:48:47.637Z,6.58
2017-05-04T11:51:16.628Z,5.46
2017-05-04T11:53:45.505Z,6.78
2017-05-04T11:56:15.120Z,6.70
2017-05-04T11:58:44.774Z,5.10
2017-05-04T12:01:13.949Z,4.66
2017-05-04T12:03:42.866Z,4.42
2017-05-04T12:06:12.165Z,4.20
2017-05-04T12:08:41.046Z,3.80
2017-05-04T12:11:09.921Z,4.34
2017-05-04T12:13:38.817Z,3.64
2017-05-04T12:16:07.707Z,4.76
2017-05-04T12:18:36.572Z,4.54
2017-05-04T12:21:05.577Z,3.70
2017-05-04T12:23:34.454Z,3.76
2017-05-04T12:26:04.069Z,3.04
2017-05-04T12:28:33.072Z,3.48
2017-05-04T12:31:01.949Z,3.20
2017-05-04T12:33:31.572Z,3.42
2017-05-04T12:36:00.481Z,4.58
2017-05-04T12:38:29.357Z,4.06
2017-05-04T12:40:58.236Z,4.50
2017-05-04T12:43:27.350Z,5.72
2017-05-04T12:45:56.221Z,5.24
2017-05-04T12:48:25.097Z,4.96
2017-05-04T12:50:54.840Z,5.06
2017-05-04T12:53:23.719Z,5.14
2017-05-04T12:55:52.589Z,4.40
2017-05-04T12:58:22.329Z,4.54
2017-05-04T13:00:51.201Z,5.72
2017-05-04T13:03:20.068Z,6.92
2017-05-04T13:05:49.718Z,6.26
2017-05-04T13:08:18.584Z,8.06
2017-05-04T13:10:47.468Z,9.54
2017-05-04T13:13:17.209Z,7.74
2017-05-04T13:15:46.097Z,5.40
2017-05-04T13:18:14.970Z,6.22
2017-05-04T13:20:43.982Z,7.08
2017-05-04T13:23:12.860Z,8.42
2017-05-04T13:25:41.741Z,5.84
2017-05-04T13:28:11.396Z,4.86
2017-05-04T13:30:40.273Z,4.82
2017-05-04T13:33:09.152Z,6.14
2017-05-04T13:35:38.052Z,4.80
2017-05-04T13:38:06.929Z,4.40
2017-05-04T13:40:35.808Z,3.30
2017-05-04T13:43:04.813Z,5.46
2017-05-04T13:45:33.685Z,3.40
2017-05-04T13:48:02.577Z,3.56
2017-05-04T13:50:32.310Z,3.82
2017-05-04T13:53:01.186Z,5.02
2017-05-04T13:55:30.064Z,3.10
2017-05-04T13:57:59.709Z,3.20
2017-05-04T14:00:28.581Z,2.64
2017-05-04T14:02:57.452Z,3.06
2017-05-04T14:05:26.533Z,2.72
2017-05-04T14:07:55.409Z,3.28
2017-05-04T14:10:24.326Z,3.14
2017-05-04T14:12:53.940Z,3.64
2017-05-04T14:15:23.552Z,3.00
2017-05-04T14:17:52.454Z,3.18
2017-05-04T14:20:21.328Z,3.28
2017-05-04T14:22:50.205Z,2.62
2017-05-04T14:25:19.946Z,2.80
2017-05-04T14:27:48.816Z,3.08
2017-05-04T14:30:18.433Z,2.88
2017-05-04T14:32:47.666Z,2.50
2017-05-04T14:35:16.544Z,3.00
2017-05-04T14:37:45.420Z,3.42
2017-05-04T14:40:14.325Z,2.90
2017-05-04T14:42:43.206Z,2.90
2017-05-04T14:45:12.130Z,3.30
2017-05-04T14:47:41.249Z,3.74
2017-05-04T14:50:10.118Z,3.80
2017-05-04T14:52:38.997Z,2.92
2017-05-04T14:55:08.177Z,2.90
2017-05-04T14:57:37.046Z,2.88
2017-05-04T15:00:05.924Z,3.32
2017-05-04T15:02:35.979Z,2.70
2017-05-04T15:05:04.849Z,2.24
2017-05-04T15:07:33.820Z,2.04
2017-05-04T15:10:03.465Z,1.76
2017-05-04T15:12:32.337Z,2.98
2017-05-04T15:15:01.213Z,2.98
2017-05-04T15:17:30.856Z,3.34
2017-05-04T15:19:59.841Z,3.02
2017-05-04T15:22:28.757Z,4.56
2017-05-04T15:24:57.632Z,4.48
2017-05-04T15:27:26.507Z,3.32
2017-05-04T15:29:55.522Z,2.54
2017-05-04T15:32:24.398Z,2.36
2017-05-04T15:34:53.281Z,2.92
2017-05-04T15:37:22.486Z,2.44
2017-05-04T15:39:51.361Z,2.26
2017-05-04T15:42:20.236Z,2.60
2017-05-04T15:44:49.888Z,2.62
2017-05-04T15:47:18.773Z,2.78
2017-05-04T15:49:47.646Z,2.96
2017-05-04T15:52:16.933Z,2.50
2017-05-04T15:54:45.817Z,2.24
2017-05-04T15:57:14.703Z,3.00
2017-05-04T15:59:43.913Z,2.30
2017-05-04T16:02:12.804Z,2.60
2017-05-04T16:04:41.676Z,2.74
2017-05-04T16:07:10.572Z,2.74
2017-05-04T16:09:39.476Z,2.78
2017-05-04T16:12:09.064Z,2.78
2017-05-04T16:14:38.057Z,2.90
2017-05-04T16:17:06.928Z,2.78
2017-05-04T16:19:36.561Z,2.42
2017-05-04T16:22:05.461Z,2.72
2017-05-04T16:24:34.337Z,2.02
2017-05-04T16:27:03.209Z,1.44
2017-05-04T16:29:32.949Z,1.22
2017-05-04T16:32:01.821Z,1.52
2017-05-04T16:34:31.441Z,1.20
2017-05-04T16:37:00.448Z,1.46
2017-05-04T16:39:29.316Z,1.08
2017-05-04T16:41:58.195Z,1.80
2017-05-04T16:44:27.836Z,2.52
2017-05-04T16:46:56.711Z,1.10
2017-05-04T16:49:25.585Z,1.10
2017-05-04T16:51:55.224Z,1.22
2017-05-04T16:54:24.092Z,1.46
2017-05-04T16:56:52.968Z,1.08
2017-05-04T16:59:22.713Z,1.20
2017-05-04T17:01:51.588Z,1.36
2017-05-04T17:04:20.476Z,1.26
2017-05-04T17:06:50.515Z,1.96
2017-05-04T17:09:19.392Z,1.40
2017-05-04T17:11:48.265Z,1.68
2017-05-04T17:14:18.012Z,1.52
2017-05-04T17:16:46.900Z,1.92
2017-05-04T17:19:15.786Z,1.62
2017-05-04T17:21:44.903Z,1.08
2017-05-04T17:24:13.783Z,1.10
2017-05-04T17:26:42.657Z,1.20
2017-05-04T17:29:11.655Z,1.20
2017-05-04T17:31:40.528Z,1.42
2017-05-04T17:34:09.412Z,1.36
2017-05-04T17:36:39.149Z,1.18
2017-05-04T17:39:08.021Z,1.44
2017-05-04T17:41:36.901Z,1.30
2017-05-04T17:44:05.808Z,1.18
2017-05-04T17:46:34.681Z,1.22
2017-05-04T17:49:04.321Z,1.40
2017-05-04T17:51:33.317Z,1.10
2017-05-04T17:54:02.192Z,1.10
2017-05-04T17:56:31.069Z,1.38
2017-05-04T17:59:00.289Z,1.60
2017-05-04T18:01:29.167Z,1.48
2017-05-04T18:03:58.043Z,1.26
2017-05-04T18:06:27.269Z,1.48
2017-05-04T18:08:56.141Z,1.88
2017-05-04T18:11:25.021Z,2.16
2017-05-04T18:13:54.965Z,1.78
2017-05-04T18:16:23.840Z,2.42
2017-05-04T18:18:52.726Z,1.78
2017-05-04T18:21:21.733Z,1.56
2017-05-04T18:23:50.609Z,1.78
2017-05-04T18:26:20.247Z,1.80
2017-05-04T18:28:49.144Z,2.00
2017-05-04T18:31:18.018Z,1.12
2017-05-04T18:33:47.032Z,1.56
2017-05-04T18:36:15.911Z,1.62
2017-05-04T18:38:44.780Z,2.00
2017-05-04T18:41:13.784Z,2.08
2017-05-04T18:43:42.662Z,1.90
2017-05-04T18:46:11.536Z,1.64
2017-05-04T18:48:41.185Z,1.90
2017-05-04T18:51:10.375Z,1.78
2017-05-04T18:53:39.249Z,1.68
2017-05-04T18:56:08.121Z,2.10
2017-05-04T18:58:37.762Z,1.94
2017-05-04T19:01:06.641Z,1.76
2017-05-04T19:03:35.844Z,1.80
2017-05-04T19:06:04.719Z,1.66
2017-05-04T19:08:33.593Z,2.36
2017-05-04T19:11:03.233Z,2.22
2017-05-04T19:13:32.106Z,1.64
2017-05-04T19:16:00.981Z,2.14
2017-05-04T19:18:30.933Z,1.88
2017-05-04T19:20:59.808Z,2.06
2017-05-04T19:23:28.685Z,1.88
2017-05-04T19:25:58.429Z,2.34
2017-05-04T19:28:27.301Z,1.74
2017-05-04T19:30:56.183Z,2.28
2017-05-04T19:33:25.821Z,2.48
2017-05-04T19:35:54.696Z,2.12
2017-05-04T19:38:23.904Z,2.90
2017-05-04T19:40:52.789Z,2.20
2017-05-04T19:43:21.673Z,1.98
2017-05-04T19:45:50.677Z,2.34
2017-05-04T19:48:19.559Z,2.32
2017-05-04T19:50:48.433Z,2.96
2017-05-04T19:53:17.353Z,3.32
2017-05-04T19:55:46.238Z,2.76
2017-05-04T19:58:15.117Z,2.52
2017-05-04T20:00:44.122Z,2.72
2017-05-04T20:03:12.993Z,3.18
2017-05-04T20:05:41.869Z,2.86
2017-05-04T20:08:11.512Z,3.18
2017-05-04T20:10:40.397Z,2.50
2017-05-04T20:13:09.269Z,2.72
2017-05-04T20:15:38.494Z,2.56
2017-05-04T20:18:07.372Z,2.80
2017-05-04T20:20:36.249Z,2.98
2017-05-04T20:23:05.172Z,2.74
2017-05-04T20:25:34.049Z,2.58
2017-05-04T20:28:02.928Z,2.96
2017-05-04T20:30:31.832Z,3.10
2017-05-04T20:33:00.718Z,2.92
2017-05-04T20:35:29.909Z,2.86
2017-05-04T20:37:58.798Z,2.74
2017-05-04T20:40:27.674Z,2.30
2017-05-04T20:42:57.416Z,3.38
2017-05-04T20:45:26.289Z,3.62
2017-05-04T20:47:55.168Z,2.58
2017-05-04T20:50:24.392Z,3.20
2017-05-04T20:52:53.285Z,3.40
2017-05-04T20:55:22.169Z,3.48
2017-05-04T20:57:51.129Z,2.78
2017-05-04T21:00:20.747Z,3.04
2017-05-04T21:02:49.674Z,3.16
2017-05-04T21:05:18.633Z,3.24
2017-05-04T21:07:47.512Z,3.70
2017-05-04T21:10:17.208Z,2.34
2017-05-04T21:12:46.096Z,2.76
2017-05-04T21:15:14.989Z,2.98
2017-05-04T21:17:44.087Z,2.86
2017-05-04T21:20:12.965Z,2.40
2017-05-04T21:22:41.846Z,2.44
2017-05-04T21:25:10.806Z,3.04
2017-05-04T21:27:39.674Z,2.50
2017-05-04T21:30:08.582Z,3.16
2017-05-04T21:32:37.490Z,3.12
2017-05-04T21:35:06.369Z,3.20
2017-05-04T21:37:35.653Z,2.98
2017-05-04T21:40:04.537Z,2.66
2017-05-04T21:42:33.413Z,2.54
2017-05-04T21:45:03.067Z,2.80
2017-05-04T21:47:31.960Z,2.86
2017-05-04T21:50:00.825Z,2.88
2017-05-04T21:52:29.735Z,3.14
2017-05-04T21:54:58.616Z,2.70
2017-05-04T21:57:27.494Z,2.80
2017-05-04T21:59:56.402Z,2.50
2017-05-04T22:02:25.279Z,2.98
2017-05-04T22:04:54.168Z,2.66
2017-05-04T22:07:23.085Z,2.46
2017-05-04T22:09:51.963Z,2.38
2017-05-04T22:12:20.832Z,2.82
2017-05-04T22:14:49.756Z,2.50
2017-05-04T22:17:18.633Z,2.84
2017-05-04T22:19:47.506Z,2.88
2017-05-04T22:22:16.514Z,2.34
2017-05-04T22:24:45.390Z,2.68
2017-05-04T22:27:14.265Z,2.82
2017-05-04T22:29:43.909Z,2.80
2017-05-04T22:32:12.916Z,2.84
2017-05-04T22:34:41.797Z,2.60
2017-05-04T22:37:10.679Z,1.98
2017-05-04T22:39:39.579Z,2.76
2017-05-04T22:42:08.457Z,2.40
2017-05-04T22:44:37.332Z,3.28
2017-05-04T22:47:06.232Z,2.46
2017-05-04T22:49:35.142Z,2.40
2017-05-04T22:52:04.029Z,2.82
2017-05-04T22:54:32.932Z,2.56
2017-05-04T22:57:01.809Z,2.80
2017-05-04T22:59:30.688Z,2.60
2017-05-04T23:01:59.605Z,2.86
2017-05-04T23:04:28.472Z,2.44
2017-05-04T23:06:57.352Z,2.76
2017-05-04T23:09:26.266Z,2.74
2017-05-04T23:11:55.150Z,2.82
2017-05-04T23:14:24.026Z,2.66
2017-05-04T23:16:53.029Z,2.60
2017-05-04T23:19:21.900Z,2.48
2017-05-04T23:21:50.783Z,3.00
2017-05-04T23:24:20.531Z,2.56
2017-05-04T23:26:49.471Z,2.16
2017-05-04T23:29:18.389Z,2.78
2017-05-04T23:31:47.556Z,2.46
2017-05-04T23:34:16.440Z,2.20
2017-05-04T23:36:45.315Z,2.98
2017-05-04T23:39:14.321Z,2.72
2017-05-04T23:41:43.201Z,2.98
2017-05-04T23:44:12.090Z,2.66
2017-05-04T23:46:41.089Z,3.20
2017-05-04T23:49:09.964Z,2.82
2017-05-04T23:51:38.845Z,3.06
2017-05-04T23:54:07.858Z,2.72
2017-05-04T23:56:36.732Z,2.94
2017-05-04T23:59:05.609Z,2.60
